sensor_id;sensor_type;location;lat;lon;timestamp;P1;durP1;ratioP1;P2;durP2;ratioP2
69912;SDS011;57198;52.082;5.108;2022-11-15T00:01:44;43.25;;;19.55;;
69912;SDS011;57198;52.082;5.108;2022-11-15T00:04:30;37.10;;;19.17;;
69912;SDS011;57198;52.082;5.108;2022-11-15T00:07:16;39.63;;;18.33;;
69912;SDS011;57198;52.082;5.108;2022-11-15T00:10:22;42.27;;;21.30;;
69912;SDS011;57198;52.082;5.108;2022-11-15T00:13:09;39.90;;;17.73;;
69912;SDS011;57198;52.082;5.108;2022-11-15T00:15:58;35.95;;;19.27;;
69912;SDS011;57198;52.082;5.108;2022-11-15T00:18:44;36.25;;;16.25;;
69912;SDS011;57198;52.082;5.108;2022-11-15T00:21:34;43.75;;;18.90;;
69912;SDS011;57198;52.082;5.108;2022-11-15T00:24:20;39.30;;;18.63;;
69912;SDS011;57198;52.082;5.108;2022-11-15T00:27:06;40.53;;;18.27;;
69912;SDS011;57198;52.082;5.108;2022-11-15T00:29:52;41.00;;;18.40;;
69912;SDS011;57198;52.082;5.108;2022-11-15T00:32:38;42.08;;;19.63;;
69912;SDS011;57198;52.082;5.108;2022-11-15T00:35:24;47.75;;;18.60;;
69912;SDS011;57198;52.082;5.108;2022-11-15T00:38:10;53.23;;;19.07;;
69912;SDS011;57198;52.082;5.108;2022-11-15T00:40:56;43.38;;;17.90;;
69912;SDS011;57198;52.082;5.108;2022-11-15T00:43:42;46.95;;;20.85;;
69912;SDS011;57198;52.082;5.108;2022-11-15T00:46:28;51.72;;;19.65;;
69912;SDS011;57198;52.082;5.108;2022-11-15T00:49:14;50.30;;;21.23;;
69912;SDS011;57198;52.082;5.108;2022-11-15T00:52:00;54.53;;;22.10;;
69912;SDS011;57198;52.082;5.108;2022-11-15T00:54:46;45.97;;;20.00;;
69912;SDS011;57198;52.082;5.108;2022-11-15T00:57:32;46.50;;;20.05;;
69912;SDS011;57198;52.082;5.108;2022-11-15T01:00:18;51.58;;;19.42;;
69912;SDS011;57198;52.082;5.108;2022-11-15T01:03:04;45.20;;;18.80;;
69912;SDS011;57198;52.082;5.108;2022-11-15T01:05:50;44.90;;;19.03;;
69912;SDS011;57198;52.082;5.108;2022-11-15T01:08:36;49.28;;;20.23;;
69912;SDS011;57198;52.082;5.108;2022-11-15T01:11:22;54.05;;;21.02;;
69912;SDS011;57198;52.082;5.108;2022-11-15T01:14:08;52.40;;;19.42;;
69912;SDS011;57198;52.082;5.108;2022-11-15T01:16:54;57.47;;;22.00;;
69912;SDS011;57198;52.082;5.108;2022-11-15T01:19:39;53.87;;;18.33;;
69912;SDS011;57198;52.082;5.108;2022-11-15T01:22:26;53.78;;;20.52;;
69912;SDS011;57198;52.082;5.108;2022-11-15T01:25:11;53.65;;;19.05;;
69912;SDS011;57198;52.082;5.108;2022-11-15T01:27:57;48.40;;;20.77;;
69912;SDS011;57198;52.082;5.108;2022-11-15T01:30:43;56.45;;;22.05;;
69912;SDS011;57198;52.082;5.108;2022-11-15T01:33:29;51.37;;;19.27;;
69912;SDS011;57198;52.082;5.108;2022-11-15T01:36:20;47.38;;;20.20;;
69912;SDS011;57198;52.082;5.108;2022-11-15T01:39:08;51.42;;;21.88;;
69912;SDS011;57198;52.082;5.108;2022-11-15T01:41:54;49.58;;;21.05;;
69912;SDS011;57198;52.082;5.108;2022-11-15T01:44:42;47.13;;;20.95;;
69912;SDS011;57198;52.082;5.108;2022-11-15T01:47:33;49.33;;;20.67;;
69912;SDS011;57198;52.082;5.108;2022-11-15T01:50:22;48.35;;;20.85;;
69912;SDS011;57198;52.082;5.108;2022-11-15T01:53:09;54.72;;;21.85;;
69912;SDS011;57198;52.082;5.108;2022-11-15T01:55:55;46.47;;;20.98;;
69912;SDS011;57198;52.082;5.108;2022-11-15T01:58:41;49.28;;;21.17;;
69912;SDS011;57198;52.082;5.108;2022-11-15T02:01:29;42.03;;;20.33;;
69912;SDS011;57198;52.082;5.108;2022-11-15T02:04:16;42.28;;;20.27;;
69912;SDS011;57198;52.082;5.108;2022-11-15T02:07:04;47.05;;;22.83;;
69912;SDS011;57198;52.082;5.108;2022-11-15T02:09:53;54.47;;;21.92;;
69912;SDS011;57198;52.082;5.108;2022-11-15T02:12:39;50.95;;;21.90;;
69912;SDS011;57198;52.082;5.108;2022-11-15T02:15:26;52.10;;;21.30;;
69912;SDS011;57198;52.082;5.108;2022-11-15T02:18:18;47.97;;;20.55;;
69912;SDS011;57198;52.082;5.108;2022-11-15T02:26:51;44.50;;;22.30;;
69912;SDS011;57198;52.082;5.108;2022-11-15T02:35:26;49.03;;;22.83;;
69912;SDS011;57198;52.082;5.108;2022-11-15T02:38:29;49.85;;;22.98;;
69912;SDS011;57198;52.082;5.108;2022-11-15T02:41:17;48.92;;;22.08;;
69912;SDS011;57198;52.082;5.108;2022-11-15T02:44:13;50.70;;;21.13;;
69912;SDS011;57198;52.082;5.108;2022-11-15T02:47:01;46.13;;;23.55;;
69912;SDS011;57198;52.082;5.108;2022-11-15T02:49:58;49.15;;;23.90;;
69912;SDS011;57198;52.082;5.108;2022-11-15T02:52:46;47.45;;;23.35;;
69912;SDS011;57198;52.082;5.108;2022-11-15T03:07:05;51.47;;;22.70;;
69912;SDS011;57198;52.082;5.108;2022-11-15T03:10:01;44.63;;;22.08;;
69912;SDS011;57198;52.082;5.108;2022-11-15T03:15:57;47.92;;;20.63;;
69912;SDS011;57198;52.082;5.108;2022-11-15T03:18:51;47.75;;;21.13;;
69912;SDS011;57198;52.082;5.108;2022-11-15T03:21:38;44.70;;;21.73;;
69912;SDS011;57198;52.082;5.108;2022-11-15T03:24:25;42.28;;;21.70;;
69912;SDS011;57198;52.082;5.108;2022-11-15T03:27:12;45.97;;;21.87;;
69912;SDS011;57198;52.082;5.108;2022-11-15T03:29:59;45.03;;;21.95;;
69912;SDS011;57198;52.082;5.108;2022-11-15T03:32:47;49.53;;;22.27;;
69912;SDS011;57198;52.082;5.108;2022-11-15T03:35:35;42.65;;;20.65;;
69912;SDS011;57198;52.082;5.108;2022-11-15T03:38:26;46.55;;;22.98;;
69912;SDS011;57198;52.082;5.108;2022-11-15T03:41:18;40.90;;;19.83;;
69912;SDS011;57198;52.082;5.108;2022-11-15T03:44:15;37.95;;;19.67;;
69912;SDS011;57198;52.082;5.108;2022-11-15T03:47:09;36.63;;;21.27;;
69912;SDS011;57198;52.082;5.108;2022-11-15T03:49:58;32.33;;;17.60;;
69912;SDS011;57198;52.082;5.108;2022-11-15T03:52:46;33.58;;;19.58;;
69912;SDS011;57198;52.082;5.108;2022-11-15T03:55:32;38.00;;;20.97;;
69912;SDS011;57198;52.082;5.108;2022-11-15T03:58:18;34.08;;;18.75;;
69912;SDS011;57198;52.082;5.108;2022-11-15T04:01:04;32.60;;;18.75;;
69912;SDS011;57198;52.082;5.108;2022-11-15T04:03:50;34.75;;;18.58;;
69912;SDS011;57198;52.082;5.108;2022-11-15T04:06:36;25.83;;;15.40;;
69912;SDS011;57198;52.082;5.108;2022-11-15T04:09:22;33.77;;;18.93;;
69912;SDS011;57198;52.082;5.108;2022-11-15T04:12:08;31.23;;;18.50;;
69912;SDS011;57198;52.082;5.108;2022-11-15T04:14:54;39.15;;;19.30;;
69912;SDS011;57198;52.082;5.108;2022-11-15T04:17:53;31.63;;;18.52;;
69912;SDS011;57198;52.082;5.108;2022-11-15T04:20:39;27.95;;;18.35;;
69912;SDS011;57198;52.082;5.108;2022-11-15T04:23:43;25.67;;;16.67;;
69912;SDS011;57198;52.082;5.108;2022-11-15T04:26:48;31.30;;;18.55;;
69912;SDS011;57198;52.082;5.108;2022-11-15T04:29:34;35.75;;;19.80;;
69912;SDS011;57198;52.082;5.108;2022-11-15T04:32:20;29.73;;;17.50;;
69912;SDS011;57198;52.082;5.108;2022-11-15T04:35:06;32.15;;;18.50;;
69912;SDS011;57198;52.082;5.108;2022-11-15T04:37:52;31.10;;;17.20;;
69912;SDS011;57198;52.082;5.108;2022-11-15T04:40:38;27.75;;;17.30;;
69912;SDS011;57198;52.082;5.108;2022-11-15T04:43:24;27.27;;;17.70;;
69912;SDS011;57198;52.082;5.108;2022-11-15T04:46:10;31.08;;;17.23;;
69912;SDS011;57198;52.082;5.108;2022-11-15T04:48:56;27.73;;;17.40;;
69912;SDS011;57198;52.082;5.108;2022-11-15T04:51:43;28.23;;;18.23;;
69912;SDS011;57198;52.082;5.108;2022-11-15T04:54:29;25.35;;;16.52;;
69912;SDS011;57198;52.082;5.108;2022-11-15T04:57:15;29.95;;;17.30;;
69912;SDS011;57198;52.082;5.108;2022-11-15T05:00:05;26.65;;;16.95;;
69912;SDS011;57198;52.082;5.108;2022-11-15T05:02:51;25.67;;;16.30;;
69912;SDS011;57198;52.082;5.108;2022-11-15T05:05:57;28.07;;;17.50;;
69912;SDS011;57198;52.082;5.108;2022-11-15T05:08:43;27.77;;;16.27;;
69912;SDS011;57198;52.082;5.108;2022-11-15T05:11:29;29.30;;;17.27;;
69912;SDS011;57198;52.082;5.108;2022-11-15T05:14:15;23.42;;;15.43;;
69912;SDS011;57198;52.082;5.108;2022-11-15T05:17:01;25.70;;;15.70;;
69912;SDS011;57198;52.082;5.108;2022-11-15T05:19:47;24.93;;;15.10;;
69912;SDS011;57198;52.082;5.108;2022-11-15T05:22:33;28.50;;;16.05;;
69912;SDS011;57198;52.082;5.108;2022-11-15T05:25:19;28.42;;;16.33;;
69912;SDS011;57198;52.082;5.108;2022-11-15T05:28:05;25.70;;;15.25;;
69912;SDS011;57198;52.082;5.108;2022-11-15T05:30:51;22.58;;;13.82;;
69912;SDS011;57198;52.082;5.108;2022-11-15T05:33:37;22.33;;;14.33;;
69912;SDS011;57198;52.082;5.108;2022-11-15T05:39:18;26.33;;;15.90;;
69912;SDS011;57198;52.082;5.108;2022-11-15T05:42:09;23.45;;;15.55;;
69912;SDS011;57198;52.082;5.108;2022-11-15T05:44:55;21.70;;;15.30;;
69912;SDS011;57198;52.082;5.108;2022-11-15T05:47:42;22.10;;;14.73;;
69912;SDS011;57198;52.082;5.108;2022-11-15T05:50:29;22.02;;;14.23;;
69912;SDS011;57198;52.082;5.108;2022-11-15T05:53:16;21.98;;;14.40;;
69912;SDS011;57198;52.082;5.108;2022-11-15T05:56:03;21.45;;;15.35;;
69912;SDS011;57198;52.082;5.108;2022-11-15T05:58:52;24.83;;;13.55;;
69912;SDS011;57198;52.082;5.108;2022-11-15T06:01:43;21.80;;;14.63;;
69912;SDS011;57198;52.082;5.108;2022-11-15T06:04:29;26.48;;;15.25;;
69912;SDS011;57198;52.082;5.108;2022-11-15T06:07:15;24.35;;;16.48;;
69912;SDS011;57198;52.082;5.108;2022-11-15T06:10:02;21.27;;;14.18;;
69912;SDS011;57198;52.082;5.108;2022-11-15T06:12:55;22.77;;;14.93;;
69912;SDS011;57198;52.082;5.108;2022-11-15T06:15:41;22.10;;;15.20;;
69912;SDS011;57198;52.082;5.108;2022-11-15T06:18:27;25.25;;;15.45;;
69912;SDS011;57198;52.082;5.108;2022-11-15T06:21:13;28.52;;;15.02;;
69912;SDS011;57198;52.082;5.108;2022-11-15T06:23:59;25.67;;;15.30;;
69912;SDS011;57198;52.082;5.108;2022-11-15T06:26:45;23.05;;;15.45;;
69912;SDS011;57198;52.082;5.108;2022-11-15T06:29:31;29.63;;;15.73;;
69912;SDS011;57198;52.082;5.108;2022-11-15T06:32:17;24.08;;;15.68;;
69912;SDS011;57198;52.082;5.108;2022-11-15T06:35:03;23.45;;;16.08;;
69912;SDS011;57198;52.082;5.108;2022-11-15T06:37:49;31.65;;;16.30;;
69912;SDS011;57198;52.082;5.108;2022-11-15T06:40:35;30.23;;;15.73;;
69912;SDS011;57198;52.082;5.108;2022-11-15T06:43:21;31.07;;;15.60;;
69912;SDS011;57198;52.082;5.108;2022-11-15T06:46:07;26.90;;;15.90;;
69912;SDS011;57198;52.082;5.108;2022-11-15T06:48:54;22.52;;;15.02;;
69912;SDS011;57198;52.082;5.108;2022-11-15T06:51:40;27.92;;;14.57;;
69912;SDS011;57198;52.082;5.108;2022-11-15T06:54:26;22.75;;;14.82;;
69912;SDS011;57198;52.082;5.108;2022-11-15T06:57:12;27.73;;;15.43;;
69912;SDS011;57198;52.082;5.108;2022-11-15T06:59:58;20.85;;;14.18;;
69912;SDS011;57198;52.082;5.108;2022-11-15T07:02:43;24.27;;;14.95;;
69912;SDS011;57198;52.082;5.108;2022-11-15T07:05:29;21.45;;;13.90;;
69912;SDS011;57198;52.082;5.108;2022-11-15T07:08:15;21.20;;;14.30;;
69912;SDS011;57198;52.082;5.108;2022-11-15T07:11:02;20.10;;;13.67;;
69912;SDS011;57198;52.082;5.108;2022-11-15T07:13:48;21.23;;;13.57;;
69912;SDS011;57198;52.082;5.108;2022-11-15T07:16:35;21.75;;;14.50;;
69912;SDS011;57198;52.082;5.108;2022-11-15T07:19:21;23.02;;;13.85;;
69912;SDS011;57198;52.082;5.108;2022-11-15T07:22:07;23.73;;;14.70;;
69912;SDS011;57198;52.082;5.108;2022-11-15T07:24:53;21.33;;;13.70;;
69912;SDS011;57198;52.082;5.108;2022-11-15T07:27:39;25.05;;;13.63;;
69912;SDS011;57198;52.082;5.108;2022-11-15T07:30:26;22.17;;;14.05;;
69912;SDS011;57198;52.082;5.108;2022-11-15T07:33:12;22.45;;;13.50;;
69912;SDS011;57198;52.082;5.108;2022-11-15T07:35:58;23.38;;;13.75;;
69912;SDS011;57198;52.082;5.108;2022-11-15T07:38:46;21.10;;;12.30;;
69912;SDS011;57198;52.082;5.108;2022-11-15T07:41:32;18.88;;;12.82;;
69912;SDS011;57198;52.082;5.108;2022-11-15T07:44:18;20.30;;;12.77;;
69912;SDS011;57198;52.082;5.108;2022-11-15T07:47:04;20.90;;;12.20;;
69912;SDS011;57198;52.082;5.108;2022-11-15T07:49:50;19.73;;;13.07;;
69912;SDS011;57198;52.082;5.108;2022-11-15T07:52:37;17.77;;;11.63;;
69912;SDS011;57198;52.082;5.108;2022-11-15T07:55:23;19.70;;;12.05;;
69912;SDS011;57198;52.082;5.108;2022-11-15T07:58:10;14.70;;;10.52;;
69912;SDS011;57198;52.082;5.108;2022-11-15T08:00:56;18.70;;;11.23;;
69912;SDS011;57198;52.082;5.108;2022-11-15T08:03:42;17.67;;;11.30;;
69912;SDS011;57198;52.082;5.108;2022-11-15T08:06:28;15.50;;;10.77;;
69912;SDS011;57198;52.082;5.108;2022-11-15T08:09:15;17.92;;;10.32;;
69912;SDS011;57198;52.082;5.108;2022-11-15T08:12:01;18.13;;;9.27;;
69912;SDS011;57198;52.082;5.108;2022-11-15T08:14:47;19.60;;;10.90;;
69912;SDS011;57198;52.082;5.108;2022-11-15T08:17:33;16.10;;;9.57;;
69912;SDS011;57198;52.082;5.108;2022-11-15T08:20:19;15.27;;;9.33;;
69912;SDS011;57198;52.082;5.108;2022-11-15T08:23:05;12.38;;;8.43;;
69912;SDS011;57198;52.082;5.108;2022-11-15T08:25:51;52.90;;;13.30;;
69912;SDS011;57198;52.082;5.108;2022-11-15T08:28:38;26.08;;;9.60;;
69912;SDS011;57198;52.082;5.108;2022-11-15T08:31:24;19.25;;;10.88;;
69912;SDS011;57198;52.082;5.108;2022-11-15T08:34:10;15.43;;;8.90;;
69912;SDS011;57198;52.082;5.108;2022-11-15T08:36:56;14.80;;;7.65;;
69912;SDS011;57198;52.082;5.108;2022-11-15T08:39:42;18.25;;;8.15;;
69912;SDS011;57198;52.082;5.108;2022-11-15T08:42:28;16.58;;;8.90;;
69912;SDS011;57198;52.082;5.108;2022-11-15T08:45:14;14.98;;;8.30;;
69912;SDS011;57198;52.082;5.108;2022-11-15T08:48:00;13.53;;;8.07;;
69912;SDS011;57198;52.082;5.108;2022-11-15T08:50:46;10.70;;;7.43;;
69912;SDS011;57198;52.082;5.108;2022-11-15T08:53:33;16.20;;;8.15;;
69912;SDS011;57198;52.082;5.108;2022-11-15T08:56:19;24.90;;;10.13;;
69912;SDS011;57198;52.082;5.108;2022-11-15T08:59:05;17.50;;;8.02;;
69912;SDS011;57198;52.082;5.108;2022-11-15T09:01:51;25.77;;;9.73;;
69912;SDS011;57198;52.082;5.108;2022-11-15T09:04:38;14.60;;;7.47;;
69912;SDS011;57198;52.082;5.108;2022-11-15T09:07:24;9.80;;;6.65;;
69912;SDS011;57198;52.082;5.108;2022-11-15T09:10:10;17.33;;;8.25;;
69912;SDS011;57198;52.082;5.108;2022-11-15T09:12:57;19.10;;;8.55;;
69912;SDS011;57198;52.082;5.108;2022-11-15T09:15:42;19.63;;;9.00;;
69912;SDS011;57198;52.082;5.108;2022-11-15T09:18:28;12.98;;;6.80;;
69912;SDS011;57198;52.082;5.108;2022-11-15T09:21:15;9.85;;;6.72;;
69912;SDS011;57198;52.082;5.108;2022-11-15T09:24:01;12.30;;;6.25;;
69912;SDS011;57198;52.082;5.108;2022-11-15T09:26:50;10.90;;;6.93;;
69912;SDS011;57198;52.082;5.108;2022-11-15T09:29:36;8.47;;;5.80;;
69912;SDS011;57198;52.082;5.108;2022-11-15T09:32:22;10.32;;;5.97;;
69912;SDS011;57198;52.082;5.108;2022-11-15T09:35:08;10.65;;;6.10;;
69912;SDS011;57198;52.082;5.108;2022-11-15T09:37:54;8.77;;;5.50;;
69912;SDS011;57198;52.082;5.108;2022-11-15T09:40:40;9.60;;;5.40;;
69912;SDS011;57198;52.082;5.108;2022-11-15T09:49:07;7.03;;;4.63;;
69912;SDS011;57198;52.082;5.108;2022-11-15T09:51:56;6.93;;;4.70;;
69912;SDS011;57198;52.082;5.108;2022-11-15T09:57:31;6.67;;;4.77;;
69912;SDS011;57198;52.082;5.108;2022-11-15T10:03:16;6.88;;;4.82;;
69912;SDS011;57198;52.082;5.108;2022-11-15T10:05:48;6.15;;;4.43;;
69912;SDS011;57198;52.082;5.108;2022-11-15T10:08:22;5.00;;;3.80;;
69912;SDS011;57198;52.082;5.108;2022-11-15T10:11:11;9.23;;;4.70;;
69912;SDS011;57198;52.082;5.108;2022-11-15T10:14:02;83.50;;;21.90;;
69912;SDS011;57198;52.082;5.108;2022-11-15T10:24:13;52.90;;;14.80;;
69912;SDS011;57198;52.082;5.108;2022-11-15T10:26:46;16.02;;;5.90;;
69912;SDS011;57198;52.082;5.108;2022-11-15T10:29:18;10.43;;;5.15;;
69912;SDS011;57198;52.082;5.108;2022-11-15T10:31:52;7.13;;;4.40;;
69912;SDS011;57198;52.082;5.108;2022-11-15T10:34:20;6.35;;;4.18;;
69912;SDS011;57198;52.082;5.108;2022-11-15T10:36:55;5.43;;;3.63;;
69912;SDS011;57198;52.082;5.108;2022-11-15T10:39:23;5.72;;;4.07;;
69912;SDS011;57198;52.082;5.108;2022-11-15T10:41:51;18.52;;;7.25;;
69912;SDS011;57198;52.082;5.108;2022-11-15T10:44:25;14.52;;;6.00;;
69912;SDS011;57198;52.082;5.108;2022-11-15T10:49:24;6.40;;;4.40;;
69912;SDS011;57198;52.082;5.108;2022-11-15T10:51:55;35.08;;;12.65;;
69912;SDS011;57198;52.082;5.108;2022-11-15T10:54:34;16.52;;;7.60;;
69912;SDS011;57198;52.082;5.108;2022-11-15T10:57:07;19.02;;;6.65;;
69912;SDS011;57198;52.082;5.108;2022-11-15T10:59:36;34.75;;;10.07;;
69912;SDS011;57198;52.082;5.108;2022-11-15T11:04:51;21.25;;;6.35;;
69912;SDS011;57198;52.082;5.108;2022-11-15T11:07:22;25.63;;;9.23;;
69912;SDS011;57198;52.082;5.108;2022-11-15T11:12:53;7.03;;;3.15;;
69912;SDS011;57198;52.082;5.108;2022-11-15T11:15:22;10.60;;;4.47;;
69912;SDS011;57198;52.082;5.108;2022-11-15T11:20:24;34.70;;;15.27;;
69912;SDS011;57198;52.082;5.108;2022-11-15T11:28:08;5.97;;;1.90;;
69912;SDS011;57198;52.082;5.108;2022-11-15T11:30:47;4.80;;;2.03;;
69912;SDS011;57198;52.082;5.108;2022-11-15T11:46:27;30.00;;;7.00;;
69912;SDS011;57198;52.082;5.108;2022-11-15T11:48:58;14.07;;;3.88;;
69912;SDS011;57198;52.082;5.108;2022-11-15T11:51:33;17.25;;;4.25;;
69912;SDS011;57198;52.082;5.108;2022-11-15T11:54:09;28.17;;;7.17;;
69912;SDS011;57198;52.082;5.108;2022-11-15T11:56:39;108.43;;;27.02;;
69912;SDS011;57198;52.082;5.108;2022-11-15T11:59:12;59.05;;;13.15;;
69912;SDS011;57198;52.082;5.108;2022-11-15T12:01:43;26.50;;;4.13;;
69912;SDS011;57198;52.082;5.108;2022-11-15T12:04:17;16.50;;;3.95;;
69912;SDS011;57198;52.082;5.108;2022-11-15T12:14:41;5.03;;;2.47;;
69912;SDS011;57198;52.082;5.108;2022-11-15T12:17:09;50.25;;;13.25;;
69912;SDS011;57198;52.082;5.108;2022-11-15T12:19:38;40.97;;;9.90;;
69912;SDS011;57198;52.082;5.108;2022-11-15T12:22:11;113.32;;;26.73;;
69912;SDS011;57198;52.082;5.108;2022-11-15T12:27:20;12.23;;;5.35;;
69912;SDS011;57198;52.082;5.108;2022-11-15T12:29:54;6.43;;;2.58;;
69912;SDS011;57198;52.082;5.108;2022-11-15T12:34:50;17.73;;;5.20;;
69912;SDS011;57198;52.082;5.108;2022-11-15T12:42:42;13.90;;;2.92;;
69912;SDS011;57198;52.082;5.108;2022-11-15T12:48:20;39.28;;;10.07;;
69912;SDS011;57198;52.082;5.108;2022-11-15T12:58:26;24.93;;;6.93;;
69912;SDS011;57198;52.082;5.108;2022-11-15T13:00:55;19.90;;;5.43;;
69912;SDS011;57198;52.082;5.108;2022-11-15T13:03:24;13.98;;;3.30;;
69912;SDS011;57198;52.082;5.108;2022-11-15T13:05:55;14.93;;;2.80;;
69912;SDS011;57198;52.082;5.108;2022-11-15T13:08:42;8.48;;;2.22;;
69912;SDS011;57198;52.082;5.108;2022-11-15T13:13:59;8.88;;;1.90;;
69912;SDS011;57198;52.082;5.108;2022-11-15T13:16:26;7.72;;;2.42;;
69912;SDS011;57198;52.082;5.108;2022-11-15T13:18:54;22.25;;;4.10;;
69912;SDS011;57198;52.082;5.108;2022-11-15T13:21:23;12.98;;;2.42;;
69912;SDS011;57198;52.082;5.108;2022-11-15T13:24:13;8.47;;;1.97;;
69912;SDS011;57198;52.082;5.108;2022-11-15T13:26:41;10.23;;;1.70;;
69912;SDS011;57198;52.082;5.108;2022-11-15T13:29:15;7.85;;;1.55;;
69912;SDS011;57198;52.082;5.108;2022-11-15T13:31:43;8.52;;;1.88;;
69912;SDS011;57198;52.082;5.108;2022-11-15T13:39:47;16.58;;;4.22;;
69912;SDS011;57198;52.082;5.108;2022-11-15T13:42:15;12.60;;;3.63;;
69912;SDS011;57198;52.082;5.108;2022-11-15T13:47:42;11.60;;;2.67;;
69912;SDS011;57198;52.082;5.108;2022-11-15T13:50:11;5.27;;;2.00;;
69912;SDS011;57198;52.082;5.108;2022-11-15T13:52:39;6.18;;;1.63;;
69912;SDS011;57198;52.082;5.108;2022-11-15T13:55:10;12.30;;;2.85;;
69912;SDS011;57198;52.082;5.108;2022-11-15T14:00:24;7.05;;;2.03;;
69912;SDS011;57198;52.082;5.108;2022-11-15T14:02:52;7.93;;;2.07;;
69912;SDS011;57198;52.082;5.108;2022-11-15T14:05:21;11.20;;;2.50;;
69912;SDS011;57198;52.082;5.108;2022-11-15T14:10:31;4.43;;;2.10;;
69912;SDS011;57198;52.082;5.108;2022-11-15T14:12:59;54.05;;;12.93;;
69912;SDS011;57198;52.082;5.108;2022-11-15T14:15:30;6.67;;;2.30;;
69912;SDS011;57198;52.082;5.108;2022-11-15T14:17:58;10.02;;;3.47;;
69912;SDS011;57198;52.082;5.108;2022-11-15T14:20:33;22.52;;;6.07;;
69912;SDS011;57198;52.082;5.108;2022-11-15T14:23:02;8.77;;;2.97;;
69912;SDS011;57198;52.082;5.108;2022-11-15T14:25:30;12.23;;;2.75;;
69912;SDS011;57198;52.082;5.108;2022-11-15T14:28:08;7.57;;;1.80;;
69912;SDS011;57198;52.082;5.108;2022-11-15T14:30:36;5.53;;;2.05;;
69912;SDS011;57198;52.082;5.108;2022-11-15T14:33:22;6.30;;;1.83;;
69912;SDS011;57198;52.082;5.108;2022-11-15T14:35:50;12.48;;;4.53;;
69912;SDS011;57198;52.082;5.108;2022-11-15T14:38:18;7.75;;;2.88;;
69912;SDS011;57198;52.082;5.108;2022-11-15T14:40:46;13.70;;;3.90;;
69912;SDS011;57198;52.082;5.108;2022-11-15T14:43:13;10.65;;;2.90;;
69912;SDS011;57198;52.082;5.108;2022-11-15T14:45:41;13.63;;;3.25;;
69912;SDS011;57198;52.082;5.108;2022-11-15T14:48:08;11.75;;;2.47;;
69912;SDS011;57198;52.082;5.108;2022-11-15T14:50:35;13.40;;;4.13;;
69912;SDS011;57198;52.082;5.108;2022-11-15T14:53:03;6.23;;;2.27;;
69912;SDS011;57198;52.082;5.108;2022-11-15T14:55:34;2.35;;;1.77;;
69912;SDS011;57198;52.082;5.108;2022-11-15T14:58:03;6.82;;;2.60;;
69912;SDS011;57198;52.082;5.108;2022-11-15T15:00:30;4.60;;;1.95;;
69912;SDS011;57198;52.082;5.108;2022-11-15T15:03:01;4.95;;;2.13;;
69912;SDS011;57198;52.082;5.108;2022-11-15T15:05:35;6.00;;;2.07;;
69912;SDS011;57198;52.082;5.108;2022-11-15T15:08:04;3.17;;;1.88;;
69912;SDS011;57198;52.082;5.108;2022-11-15T15:10:32;4.20;;;1.85;;
69912;SDS011;57198;52.082;5.108;2022-11-15T15:13:08;4.57;;;2.35;;
69912;SDS011;57198;52.082;5.108;2022-11-15T15:15:37;4.93;;;2.63;;
69912;SDS011;57198;52.082;5.108;2022-11-15T15:18:04;3.40;;;2.03;;
69912;SDS011;57198;52.082;5.108;2022-11-15T15:20:34;3.35;;;1.63;;
69912;SDS011;57198;52.082;5.108;2022-11-15T15:23:02;7.10;;;2.20;;
69912;SDS011;57198;52.082;5.108;2022-11-15T15:25:33;2.38;;;1.80;;
69912;SDS011;57198;52.082;5.108;2022-11-15T15:28:01;4.28;;;2.15;;
69912;SDS011;57198;52.082;5.108;2022-11-15T15:30:29;5.87;;;1.63;;
69912;SDS011;57198;52.082;5.108;2022-11-15T15:32:57;6.32;;;1.73;;
69912;SDS011;57198;52.082;5.108;2022-11-15T15:35:25;5.43;;;2.15;;
69912;SDS011;57198;52.082;5.108;2022-11-15T15:37:56;4.35;;;1.95;;
69912;SDS011;57198;52.082;5.108;2022-11-15T15:40:24;2.90;;;1.80;;
69912;SDS011;57198;52.082;5.108;2022-11-15T15:42:51;2.30;;;1.93;;
69912;SDS011;57198;52.082;5.108;2022-11-15T15:45:19;3.83;;;1.52;;
69912;SDS011;57198;52.082;5.108;2022-11-15T15:47:46;4.00;;;2.00;;
69912;SDS011;57198;52.082;5.108;2022-11-15T15:50:23;6.13;;;2.05;;
69912;SDS011;57198;52.082;5.108;2022-11-15T15:52:51;4.65;;;2.28;;
69912;SDS011;57198;52.082;5.108;2022-11-15T15:55:19;7.60;;;1.87;;
69912;SDS011;57198;52.082;5.108;2022-11-15T15:57:47;4.32;;;2.20;;
69912;SDS011;57198;52.082;5.108;2022-11-15T16:00:14;4.40;;;2.20;;
69912;SDS011;57198;52.082;5.108;2022-11-15T16:02:42;3.50;;;1.95;;
69912;SDS011;57198;52.082;5.108;2022-11-15T16:05:10;3.08;;;1.70;;
69912;SDS011;57198;52.082;5.108;2022-11-15T16:07:37;3.80;;;1.93;;
69912;SDS011;57198;52.082;5.108;2022-11-15T16:10:26;5.22;;;1.73;;
69912;SDS011;57198;52.082;5.108;2022-11-15T16:12:54;6.78;;;2.28;;
69912;SDS011;57198;52.082;5.108;2022-11-15T16:15:22;3.00;;;1.50;;
69912;SDS011;57198;52.082;5.108;2022-11-15T16:17:51;3.33;;;2.08;;
69912;SDS011;57198;52.082;5.108;2022-11-15T16:20:32;4.53;;;2.20;;
69912;SDS011;57198;52.082;5.108;2022-11-15T16:23:00;4.88;;;2.50;;
69912;SDS011;57198;52.082;5.108;2022-11-15T16:25:37;4.13;;;1.80;;
69912;SDS011;57198;52.082;5.108;2022-11-15T16:28:04;3.28;;;1.67;;
69912;SDS011;57198;52.082;5.108;2022-11-15T16:30:32;2.72;;;2.28;;
69912;SDS011;57198;52.082;5.108;2022-11-15T16:32:59;5.13;;;2.50;;
69912;SDS011;57198;52.082;5.108;2022-11-15T16:35:27;4.78;;;1.80;;
69912;SDS011;57198;52.082;5.108;2022-11-15T16:37:54;4.47;;;2.03;;
69912;SDS011;57198;52.082;5.108;2022-11-15T16:40:24;4.57;;;1.95;;
69912;SDS011;57198;52.082;5.108;2022-11-15T16:42:51;6.03;;;2.28;;
69912;SDS011;57198;52.082;5.108;2022-11-15T16:45:19;3.83;;;1.70;;
69912;SDS011;57198;52.082;5.108;2022-11-15T16:47:46;3.50;;;1.70;;
69912;SDS011;57198;52.082;5.108;2022-11-15T16:50:18;4.80;;;2.15;;
69912;SDS011;57198;52.082;5.108;2022-11-15T16:52:52;4.88;;;2.33;;
69912;SDS011;57198;52.082;5.108;2022-11-15T16:55:21;4.90;;;2.60;;
69912;SDS011;57198;52.082;5.108;2022-11-15T16:57:48;4.13;;;2.57;;
69912;SDS011;57198;52.082;5.108;2022-11-15T17:00:17;4.43;;;2.05;;
69912;SDS011;57198;52.082;5.108;2022-11-15T17:02:45;4.00;;;2.33;;
69912;SDS011;57198;52.082;5.108;2022-11-15T17:05:13;4.22;;;2.33;;
69912;SDS011;57198;52.082;5.108;2022-11-15T17:07:46;6.18;;;3.08;;
69912;SDS011;57198;52.082;5.108;2022-11-15T17:10:22;3.93;;;2.17;;
69912;SDS011;57198;52.082;5.108;2022-11-15T17:12:50;6.80;;;2.53;;
69912;SDS011;57198;52.082;5.108;2022-11-15T17:15:18;6.30;;;2.70;;
69912;SDS011;57198;52.082;5.108;2022-11-15T17:17:52;5.60;;;2.47;;
69912;SDS011;57198;52.082;5.108;2022-11-15T17:20:21;5.32;;;2.42;;
69912;SDS011;57198;52.082;5.108;2022-11-15T17:22:48;3.47;;;1.77;;
69912;SDS011;57198;52.082;5.108;2022-11-15T17:25:16;3.03;;;2.30;;
69912;SDS011;57198;52.082;5.108;2022-11-15T17:27:43;5.90;;;2.92;;
69912;SDS011;57198;52.082;5.108;2022-11-15T17:30:11;5.18;;;2.60;;
69912;SDS011;57198;52.082;5.108;2022-11-15T17:32:41;4.13;;;2.55;;
69912;SDS011;57198;52.082;5.108;2022-11-15T17:35:09;6.77;;;2.90;;
69912;SDS011;57198;52.082;5.108;2022-11-15T17:37:41;2.60;;;2.22;;
69912;SDS011;57198;52.082;5.108;2022-11-15T17:40:09;5.70;;;3.00;;
69912;SDS011;57198;52.082;5.108;2022-11-15T17:42:39;3.85;;;2.60;;
69912;SDS011;57198;52.082;5.108;2022-11-15T17:45:07;6.40;;;2.35;;
69912;SDS011;57198;52.082;5.108;2022-11-15T17:47:36;2.67;;;2.17;;
69912;SDS011;57198;52.082;5.108;2022-11-15T17:50:03;5.22;;;2.80;;